Time;durP1;ratioP1;P1;durP2;ratioP2;P2;SDS_P1;SDS_P2;PMS_P1;PMS_P2;Temp;Humidity;BMP_temperature;BMP_pressure;BME280_temperature;BME280_humidity;BME280_pressure;Samples;Min_cycle;Max_cycle;Signal;HPM_P1;HPM_P2
2021/12/30 00:00:44;;;;;;;52.25;7.93;;;8.70;99.90;;;;;;5062588;28;20446;-79
2021/12/30 00:03:10;;;;;;;50.08;7.97;;;8.80;99.90;;;;;;5080159;28;20115;-79
2021/12/30 00:05:36;;;;;;;45.35;7.20;;;8.80;99.90;;;;;;5079652;28;20474;-80
2021/12/30 00:08:02;;;;;;;56.03;8.30;;;8.60;99.90;;;;;;5063412;28;20093;-79
2021/12/30 00:10:29;;;;;;;56.08;10.40;;;8.70;99.90;;;;;;5057426;28;20102;-78
2021/12/30 00:12:55;;;;;;;56.75;9.65;;;8.70;99.90;;;;;;5075703;28;20841;-78
2021/12/30 00:15:21;;;;;;;45.33;7.97;;;8.60;99.90;;;;;;5057739;28;20036;-78
2021/12/30 00:17:47;;;;;;;50.08;7.22;;;8.70;99.90;;;;;;5057417;28;20524;-78
2021/12/30 00:20:13;;;;;;;57.10;10.55;;;8.60;99.90;;;;;;5041009;28;20043;-79
2021/12/30 00:22:41;;;;;;;50.25;8.25;;;8.70;99.90;;;;;;5041805;28;20037;-79
2021/12/30 00:25:08;;;;;;;48.38;8.68;;;8.70;99.90;;;;;;5058715;28;20068;-79
2021/12/30 00:27:34;;;;;;;56.42;8.80;;;8.50;99.90;;;;;;5043227;28;20059;-78
2021/12/30 00:30:01;;;;;;;53.70;8.82;;;;;;;;;;5059254;28;20041;-79
2021/12/30 00:32:27;;;;;;;55.95;8.98;;;8.70;99.90;;;;;;5059973;28;20087;-79
2021/12/30 00:34:52;;;;;;;51.42;8.45;;;8.70;99.90;;;;;;5059890;28;20045;-79
2021/12/30 00:37:18;;;;;;;60.25;13.02;;;8.70;99.90;;;;;;5043568;28;20079;-78
2021/12/30 00:39:43;;;;;;;50.65;9.02;;;8.60;99.90;;;;;;5060183;28;20048;-78
2021/12/30 00:42:09;;;;;;;55.78;8.90;;;8.40;99.90;;;;;;5060682;28;20033;-79
2021/12/30 00:44:35;;;;;;;49.10;8.13;;;8.60;99.90;;;;;;5061103;28;20562;-79
2021/12/30 00:47:02;;;;;;;52.83;8.02;;;8.60;99.90;;;;;;5060027;28;20096;-79
2021/12/30 00:49:28;;;;;;;46.45;9.40;;;8.40;99.90;;;;;;5059330;28;20041;-79
2021/12/30 00:51:54;;;;;;;45.83;9.40;;;8.50;99.90;;;;;;5059493;28;20041;-79
2021/12/30 00:54:20;;;;;;;55.63;9.50;;;8.50;99.90;;;;;;5060966;28;20048;-78
2021/12/30 00:56:46;;;;;;;48.90;8.52;;;8.30;99.90;;;;;;5061340;28;20045;-79
2021/12/30 00:59:12;;;;;;;46.63;7.68;;;8.50;99.90;;;;;;5060082;28;20048;-78
2021/12/30 01:01:38;;;;;;;46.05;7.88;;;;;;;;;;5062030;28;20051;-78
2021/12/30 01:04:04;;;;;;;44.03;8.35;;;8.50;99.90;;;;;;5062589;28;20100;-78
2021/12/30 01:06:30;;;;;;;43.13;7.32;;;8.80;99.90;;;;;;5045736;28;20116;-78
2021/12/30 01:08:57;;;;;;;42.85;9.30;;;8.50;99.90;;;;;;5061460;28;20033;-78
2021/12/30 01:11:24;;;;;;;49.25;10.00;;;8.70;99.90;;;;;;5046375;28;20041;-79
2021/12/30 01:13:58;;;;;;;52.28;9.05;;;8.50;99.90;;;;;;5072053;28;20044;-78
2021/12/30 01:16:24;;;;;;;55.92;7.95;;;8.50;99.90;;;;;;5077044;28;20107;-79
2021/12/30 01:21:28;;;;;;;42.60;7.75;;;8.60;99.90;;;;;;5072567;28;20053;-79
2021/12/30 01:23:54;;;;;;;55.10;8.07;;;8.50;99.90;;;;;;5073963;28;20036;-79
2021/12/30 01:26:19;;;;;;;58.00;9.05;;;8.50;99.90;;;;;;5047868;28;20037;-79
2021/12/30 01:28:45;;;;;;;41.63;7.38;;;8.50;99.90;;;;;;5051640;28;20059;-79
2021/12/30 01:31:11;;;;;;;58.55;9.85;;;8.50;99.90;;;;;;5052293;28;20045;-79
2021/12/30 01:33:39;;;;;;;51.97;9.43;;;8.40;99.90;;;;;;5053177;28;20044;-79
2021/12/30 01:36:05;;;;;;;44.55;7.10;;;8.40;99.90;;;;;;5052706;28;20044;-79
2021/12/30 01:38:31;;;;;;;44.00;7.00;;;8.30;99.90;;;;;;5055073;28;20037;-79
2021/12/30 01:41:00;;;;;;;43.75;7.72;;;8.30;99.90;;;;;;5054406;28;20276;-79
2021/12/30 01:43:26;;;;;;;43.75;7.53;;;8.30;99.90;;;;;;5055399;28;20083;-79
2021/12/30 01:45:52;;;;;;;43.95;8.32;;;8.50;99.90;;;;;;5055885;28;20408;-79
2021/12/30 01:48:18;;;;;;;38.75;8.20;;;8.50;99.90;;;;;;5057481;28;20068;-79
2021/12/30 01:50:44;;;;;;;47.63;9.00;;;8.10;99.90;;;;;;5037988;28;20045;-78
2021/12/30 01:53:10;;;;;;;41.22;8.68;;;8.20;99.90;;;;;;5056744;28;20033;-78
2021/12/30 01:55:37;;;;;;;47.15;8.60;;;;;;;;;;5058639;28;20064;-78
2021/12/30 01:58:04;;;;;;;45.85;7.15;;;8.00;99.90;;;;;;5075910;28;20048;-78
2021/12/30 02:00:31;;;;;;;39.75;8.27;;;7.90;99.90;;;;;;5062605;28;20093;-77
2021/12/30 02:02:56;;;;;;;38.88;7.13;;;8.10;99.90;;;;;;5079377;28;20025;-78
2021/12/30 02:05:22;;;;;;;35.42;7.93;;;7.80;99.90;;;;;;5087232;28;20044;-77
2021/12/30 02:07:48;;;;;;;43.58;7.63;;;7.90;99.90;;;;;;5108988;28;20047;-78
2021/12/30 02:10:14;;;;;;;44.70;8.70;;;7.70;99.90;;;;;;5071594;28;20673;-78
2021/12/30 02:12:41;;;;;;;43.13;7.55;;;7.80;99.90;;;;;;5066292;28;20044;-78
2021/12/30 02:15:16;;;;;;;44.17;9.05;;;8.00;99.90;;;;;;5084813;28;20055;-78
2021/12/30 02:17:42;;;;;;;42.75;7.70;;;7.80;99.90;;;;;;5085973;28;20044;-78
2021/12/30 02:20:12;;;;;;;61.72;9.20;;;8.10;99.90;;;;;;5085225;28;20041;-78
2021/12/30 02:22:38;;;;;;;49.33;8.68;;;7.80;99.90;;;;;;5085659;28;20044;-78
2021/12/30 02:25:05;;;;;;;46.30;9.18;;;8.10;99.90;;;;;;5067159;28;20119;-78
2021/12/30 02:27:31;;;;;;;47.45;9.80;;;7.80;99.90;;;;;;5066213;28;20041;-78
2021/12/30 02:29:57;;;;;;;42.05;8.70;;;7.80;99.90;;;;;;5083584;28;20419;-78
2021/12/30 02:32:25;;;;;;;47.80;8.00;;;7.70;99.90;;;;;;5083600;28;20044;-78
2021/12/30 02:34:51;;;;;;;53.03;8.60;;;7.90;99.90;;;;;;5066722;28;20028;-77
2021/12/30 02:37:18;;;;;;;57.63;8.45;;;7.90;99.90;;;;;;5071206;28;20044;-78
2021/12/30 02:39:49;;;;;;;52.10;10.23;;;7.90;99.90;;;;;;5062812;28;20512;-77
2021/12/30 02:42:15;;;;;;;47.55;9.48;;;7.90;99.90;;;;;;5046982;28;20037;-78
2021/12/30 02:44:40;;;;;;;32.10;8.65;;;8.00;99.90;;;;;;5062794;28;20082;-78
2021/12/30 02:47:06;;;;;;;59.72;9.55;;;8.00;99.90;;;;;;5080315;28;20415;-78
2021/12/30 02:49:32;;;;;;;56.75;9.70;;;8.00;99.90;;;;;;5046202;28;20096;-78
2021/12/30 02:51:57;;;;;;;46.90;9.93;;;8.00;99.90;;;;;;5062452;28;20047;-78
2021/12/30 02:54:23;;;;;;;50.72;9.35;;;8.00;99.90;;;;;;5063343;28;20072;-78
2021/12/30 02:56:49;;;;;;;51.33;10.82;;;8.10;99.90;;;;;;5046675;28;20048;-78
2021/12/30 02:59:16;;;;;;;53.08;12.25;;;8.10;99.90;;;;;;5061637;28;20037;-78
2021/12/30 03:01:41;;;;;;;57.40;11.80;;;8.10;99.90;;;;;;5045808;28;20396;-78
2021/12/30 03:04:07;;;;;;;49.15;10.98;;;8.00;99.90;;;;;;5045042;28;20044;-78
2021/12/30 03:06:34;;;;;;;51.13;11.82;;;8.20;99.90;;;;;;5062868;28;20033;-78
2021/12/30 03:09:00;;;;;;;50.80;10.02;;;8.20;99.90;;;;;;5064106;28;20049;-78
2021/12/30 03:11:26;;;;;;;55.85;12.63;;;8.00;99.90;;;;;;5082747;28;20055;-79
2021/12/30 03:13:54;;;;;;;61.88;12.20;;;8.20;99.90;;;;;;5063261;28;20103;-78
2021/12/30 03:16:24;;;;;;;62.05;9.77;;;8.40;99.90;;;;;;5063155;28;20586;-79
2021/12/30 03:18:50;;;;;;;44.28;10.07;;;8.10;99.90;;;;;;5062379;28;20041;-78
2021/12/30 03:21:18;;;;;;;60.53;13.18;;;8.50;99.90;;;;;;5063004;28;20037;-78
2021/12/30 03:23:44;;;;;;;48.13;10.50;;;8.40;99.90;;;;;;5062980;28;20106;-79
2021/12/30 03:26:11;;;;;;;50.70;9.85;;;8.40;99.90;;;;;;5062276;28;20033;-78
2021/12/30 03:28:43;;;;;;;47.30;11.07;;;8.20;99.90;;;;;;5062204;28;20064;-78
2021/12/30 03:31:10;;;;;;;61.08;12.80;;;8.30;99.90;;;;;;5062175;28;20045;-78
2021/12/30 03:33:36;;;;;;;46.28;11.23;;;8.40;99.90;;;;;;5062703;28;20048;-78
2021/12/30 03:36:04;;;;;;;62.85;11.25;;;8.50;99.90;;;;;;5061947;28;20412;-79
2021/12/30 03:38:34;;;;;;;53.25;11.90;;;8.50;99.90;;;;;;5061998;28;20123;-79
2021/12/30 03:41:00;;;;;;;52.47;12.15;;;8.50;99.90;;;;;;5061334;28;20076;-78
2021/12/30 03:43:27;;;;;;;61.42;13.05;;;8.60;99.90;;;;;;5061881;28;20500;-79
2021/12/30 03:45:52;;;;;;;62.08;11.90;;;8.40;99.90;;;;;;5062931;28;20037;-79
2021/12/30 03:48:19;;;;;;;68.05;12.23;;;8.50;99.90;;;;;;5062805;28;20047;-78
2021/12/30 03:50:45;;;;;;;75.00;13.18;;;8.50;99.90;;;;;;5045904;28;20048;-79
2021/12/30 03:53:15;;;;;;;61.83;12.35;;;8.60;99.90;;;;;;5046840;28;20041;-78
2021/12/30 03:55:42;;;;;;;61.17;11.45;;;8.60;99.90;;;;;;5064996;28;20068;-78
2021/12/30 03:58:08;;;;;;;72.65;13.55;;;8.50;99.90;;;;;;5064574;28;20052;-79
2021/12/30 04:00:36;;;;;;;57.47;10.90;;;8.40;99.90;;;;;;5064007;28;20040;-79
2021/12/30 04:03:02;;;;;;;64.78;13.02;;;8.60;99.90;;;;;;5064971;28;20045;-78
2021/12/30 04:05:28;;;;;;;67.47;13.02;;;8.60;99.90;;;;;;5065520;28;20068;-78
2021/12/30 04:07:53;;;;;;;76.32;13.50;;;8.60;99.90;;;;;;5064500;28;20044;-78
2021/12/30 04:10:22;;;;;;;62.58;13.10;;;8.70;99.90;;;;;;5063452;28;20052;-78
2021/12/30 04:12:48;;;;;;;64.15;14.10;;;8.80;99.90;;;;;;5068779;28;20044;-78
2021/12/30 04:15:14;;;;;;;75.50;14.15;;;8.90;99.90;;;;;;5068125;28;20040;-79
2021/12/30 04:17:40;;;;;;;80.88;15.40;;;8.60;99.90;;;;;;5077199;28;20051;-79
2021/12/30 04:20:08;;;;;;;81.35;14.60;;;8.80;99.90;;;;;;5077160;28;20045;-79
2021/12/30 04:22:39;;;;;;;81.60;12.95;;;8.80;99.90;;;;;;5076749;28;20044;-79
2021/12/30 04:25:07;;;;;;;76.75;14.55;;;8.70;99.90;;;;;;5077270;28;20098;-79
2021/12/30 04:27:33;;;;;;;71.70;12.90;;;9.00;99.90;;;;;;5081296;28;20039;-79
2021/12/30 04:29:59;;;;;;;96.50;15.32;;;8.80;99.90;;;;;;5081989;28;20499;-78
2021/12/30 04:32:25;;;;;;;74.80;13.88;;;8.90;99.90;;;;;;5081341;28;20039;-79
2021/12/30 04:34:50;;;;;;;70.47;13.82;;;9.10;99.90;;;;;;5081649;28;20072;-78
2021/12/30 04:37:16;;;;;;;80.45;14.35;;;9.10;99.90;;;;;;5069176;28;20043;-78
2021/12/30 04:39:41;;;;;;;88.13;16.35;;;9.10;99.90;;;;;;5060102;28;20090;-78
2021/12/30 04:42:07;;;;;;;74.38;15.13;;;9.10;99.90;;;;;;5057962;28;20120;-79
2021/12/30 04:44:32;;;;;;;78.93;15.73;;;9.40;99.90;;;;;;5058565;28;20071;-78
2021/12/30 04:46:58;;;;;;;88.20;17.00;;;9.10;99.90;;;;;;5058164;28;20412;-79
2021/12/30 04:49:25;;;;;;;90.95;16.58;;;;;;;;;;5057104;28;20037;-79
2021/12/30 04:51:52;;;;;;;94.68;20.08;;;9.30;99.90;;;;;;5040548;28;20045;-79
2021/12/30 04:54:18;;;;;;;98.82;17.75;;;;;;;;;;5058120;28;20037;-79
2021/12/30 04:56:44;;;;;;;88.53;20.25;;;;;;;;;;5057477;28;20466;-78
2021/12/30 04:59:09;;;;;;;87.95;20.40;;;9.30;99.90;;;;;;5058168;28;20504;-79
2021/12/30 05:01:35;;;;;;;116.03;23.13;;;;;;;;;;5058236;28;20033;-79
2021/12/30 05:04:01;;;;;;;121.43;25.67;;;9.60;99.90;;;;;;5042168;28;20079;-79
2021/12/30 05:06:27;;;;;;;138.38;25.80;;;9.60;99.90;;;;;;5041706;28;20044;-79
2021/12/30 05:08:53;;;;;;;117.63;24.73;;;;;;;;;;5058761;28;20033;-80
2021/12/30 05:11:19;;;;;;;122.18;28.23;;;;;;;;;;5057672;28;20076;-79
2021/12/30 05:13:45;;;;;;;123.18;27.52;;;;;;;;;;5068266;28;20181;-79
2021/12/30 05:16:11;;;;;;;113.07;25.23;;;;;;;;;;5079445;28;20050;-79
2021/12/30 05:18:37;;;;;;;113.43;27.23;;;;;;;;;;5078024;28;20127;-78
2021/12/30 05:21:05;;;;;;;90.60;22.73;;;9.50;99.90;;;;;;5067152;28;20041;-79
2021/12/30 05:23:31;;;;;;;89.28;23.48;;;;;;;;;;5041197;28;20064;-79
2021/12/30 05:25:57;;;;;;;107.57;25.67;;;;;;;;;;5056746;28;20037;-79
2021/12/30 05:28:24;;;;;;;98.65;24.92;;;;;;;;;;5056413;28;20122;-79
2021/12/30 05:30:49;;;;;;;78.88;25.25;;;;;;;;;;5040048;28;20131;-79
2021/12/30 05:35:56;;;;;;;81.13;23.98;;;;;;;;;;5033074;28;20132;-68
2021/12/30 05:38:22;;;;;;;99.80;24.23;;;;;;;;;;5017055;28;20468;-69
2021/12/30 05:40:48;;;;;;;102.97;26.27;;;;;;;;;;5034372;28;20045;-70
2021/12/30 05:43:14;;;;;;;83.65;25.63;;;;;;;;;;5034524;28;20069;-68
2021/12/30 05:45:40;;;;;;;86.72;24.10;;;10.10;99.90;;;;;;5000564;28;20038;-68
2021/12/30 05:48:05;;;;;;;81.45;23.75;;;10.00;99.90;;;;;;5016427;28;20481;-68
2021/12/30 05:50:31;;;;;;;81.55;23.42;;;10.10;99.90;;;;;;5034344;28;20156;-68
2021/12/30 05:52:57;;;;;;;83.10;24.45;;;10.20;99.90;;;;;;5016581;28;20045;-68
2021/12/30 05:55:24;;;;;;;88.38;23.13;;;;;;;;;;5016651;28;20148;-67
2021/12/30 05:57:52;;;;;;;82.47;21.85;;;;;;;;;;5016480;28;20203;-67
2021/12/30 06:00:19;;;;;;;94.18;24.55;;;10.20;99.90;;;;;;5016008;28;20558;-66
2021/12/30 06:02:45;;;;;;;96.93;25.38;;;;;;;;;;5033950;28;20488;-70
2021/12/30 06:05:11;;;;;;;104.15;27.15;;;10.30;99.90;;;;;;5015791;28;20044;-71
2021/12/30 06:07:37;;;;;;;95.00;27.52;;;;;;;;;;5033959;28;20489;-71
2021/12/30 06:10:04;;;;;;;101.43;27.13;;;;;;;;;;5002255;28;20080;-71
2021/12/30 06:12:30;;;;;;;109.78;29.73;;;;;;;;;;4996716;28;20544;-68
2021/12/30 06:14:57;;;;;;;113.97;27.92;;;;;;;;;;4996469;28;20042;-68
2021/12/30 06:17:23;;;;;;;132.65;31.90;;;;;;;;;;4996452;28;20124;-68
2021/12/30 06:19:49;;;;;;;108.90;28.80;;;;;;;;;;4996514;28;20074;-68
2021/12/30 06:22:15;;;;;;;127.18;29.77;;;;;;;;;;4996426;28;20038;-68
2021/12/30 06:24:41;;;;;;;127.10;31.08;;;10.10;99.90;;;;;;4996706;28;20041;-68
2021/12/30 06:27:08;;;;;;;106.35;27.45;;;10.40;99.90;;;;;;5012808;28;20128;-68
2021/12/30 06:29:34;;;;;;;101.30;26.02;;;10.40;99.90;;;;;;4996042;28;20091;-68
2021/12/30 06:32:00;;;;;;;116.00;27.20;;;;;;;;;;5013874;28;20487;-68
2021/12/30 06:34:26;;;;;;;102.70;24.83;;;;;;;;;;4991603;28;20128;-67
2021/12/30 06:36:52;;;;;;;92.55;24.27;;;;;;;;;;5032104;28;20489;-68
2021/12/30 06:39:18;;;;;;;84.00;22.65;;;;;;;;;;5031904;28;20041;-68
2021/12/30 06:41:44;;;;;;;69.50;19.15;;;;;;;;;;5032229;28;20052;-68
2021/12/30 06:44:10;;;;;;;86.72;20.40;;;;;;;;;;5015265;28;20511;-68
2021/12/30 06:46:36;;;;;;;53.67;18.85;;;;;;;;;;5032244;28;20727;-68
2021/12/30 06:49:07;;;;;;;59.42;18.52;;;10.40;99.90;;;;;;5031886;28;20563;-68
2021/12/30 06:51:35;;;;;;;49.63;16.15;;;;;;;;;;5032156;28;20048;-67
2021/12/30 06:54:02;;;;;;;48.50;16.75;;;10.20;99.90;;;;;;5031803;28;20061;-68
2021/12/30 06:56:28;;;;;;;49.42;16.35;;;;;;;;;;5032152;28;20327;-68
2021/12/30 06:58:54;;;;;;;47.65;16.75;;;10.30;99.90;;;;;;5031692;28;20038;-68
2021/12/30 07:01:19;;;;;;;43.13;15.38;;;10.30;99.90;;;;;;5031651;28;20049;-68
2021/12/30 07:03:45;;;;;;;42.80;14.20;;;;;;;;;;5031963;28;20039;-68
2021/12/30 07:06:12;;;;;;;42.70;14.98;;;;;;;;;;5031571;28;20068;-68
2021/12/30 07:08:38;;;;;;;41.35;14.43;;;;;;;;;;5033495;28;20034;-68
2021/12/30 07:11:04;;;;;;;44.70;16.40;;;;;;;;;;5049381;28;20049;-68
2021/12/30 07:13:30;;;;;;;41.15;14.73;;;;;;;;;;5031920;28;20079;-71
2021/12/30 07:15:56;;;;;;;37.03;14.73;;;;;;;;;;5028068;28;20049;-68
2021/12/30 07:18:22;;;;;;;39.63;13.60;;;;;;;;;;5029786;28;20056;-68
2021/12/30 07:20:47;;;;;;;31.60;13.27;;;10.60;99.90;;;;;;5028206;28;20049;-68
2021/12/30 07:23:13;;;;;;;36.55;16.08;;;10.70;99.90;;;;;;5028213;28;20044;-72
2021/12/30 07:25:39;;;;;;;37.03;14.77;;;;;;;;;;5028003;28;20034;-69
2021/12/30 07:28:05;;;;;;;37.97;14.93;;;10.60;99.90;;;;;;5030232;28;20037;-69
2021/12/30 07:30:31;;;;;;;41.20;16.33;;;10.70;99.90;;;;;;5036224;28;20401;-68
2021/12/30 07:32:56;;;;;;;33.75;14.93;;;10.50;99.90;;;;;;5027897;28;20041;-71
2021/12/30 07:35:22;;;;;;;43.60;15.80;;;;;;;;;;5013941;28;20132;-70
2021/12/30 07:37:49;;;;;;;42.35;15.38;;;10.70;99.90;;;;;;4991748;28;20088;-70
2021/12/30 07:40:16;;;;;;;35.58;15.82;;;10.60;99.90;;;;;;4991931;28;20050;-68
2021/12/30 07:42:41;;;;;;;38.75;16.20;;;10.70;99.90;;;;;;4991744;28;20058;-68
2021/12/30 07:45:09;;;;;;;38.35;16.38;;;10.60;99.90;;;;;;4992055;28;20042;-69
2021/12/30 07:47:36;;;;;;;35.92;16.08;;;10.70;99.90;;;;;;4991726;28;20044;-68
2021/12/30 07:50:02;;;;;;;36.90;15.80;;;10.90;99.90;;;;;;4991726;28;20073;-67
2021/12/30 07:52:28;;;;;;;37.80;15.65;;;;;;;;;;4991671;28;20041;-68
2021/12/30 07:54:54;;;;;;;39.17;15.95;;;9.10;99.90;;;;;;4991515;28;20520;-68
2021/12/30 07:57:23;;;;;;;43.47;17.75;;;10.80;99.90;;;;;;4974452;28;20121;-68
2021/12/30 07:59:50;;;;;;;33.65;15.57;;;10.60;99.90;;;;;;4991322;28;20080;-68
2021/12/30 08:02:16;;;;;;;37.35;15.63;;;10.70;99.90;;;;;;4991250;28;20049;-70
2021/12/30 08:04:42;;;;;;;33.42;15.27;;;10.80;99.90;;;;;;4991496;28;20056;-69
2021/12/30 08:07:08;;;;;;;37.72;15.32;;;10.80;99.90;;;;;;4991163;28;20038;-70
2021/12/30 08:09:34;;;;;;;36.47;14.70;;;;;;;;;;4991304;28;20049;-69
2021/12/30 08:12:00;;;;;;;31.83;14.80;;;10.90;99.90;;;;;;4991077;28;20148;-68
2021/12/30 08:14:26;;;;;;;31.35;13.20;;;;;;;;;;4991117;28;20049;-71
2021/12/30 08:16:52;;;;;;;28.95;13.02;;;;;;;;;;4975289;28;20624;-73
2021/12/30 08:19:18;;;;;;;36.13;13.55;;;;;;;;;;4991345;28;20137;-69
2021/12/30 08:21:44;;;;;;;38.83;12.90;;;10.80;99.90;;;;;;4991172;28;20144;-68
2021/12/30 08:24:10;;;;;;;32.78;11.88;;;11.00;99.90;;;;;;4991334;28;20405;-69
2021/12/30 08:26:36;;;;;;;27.83;11.73;;;10.90;99.90;;;;;;5008843;28;20511;-68
2021/12/30 08:29:02;;;;;;;30.48;11.50;;;;;;;;;;4991136;28;20129;-71
2021/12/30 08:31:27;;;;;;;32.95;12.20;;;10.80;99.90;;;;;;4991355;28;20104;-71
2021/12/30 08:33:53;;;;;;;33.45;10.40;;;10.90;99.90;;;;;;5012547;28;20136;-69
2021/12/30 08:36:19;;;;;;;28.67;10.80;;;;;;;;;;5005450;28;20045;-68
2021/12/30 08:38:44;;;;;;;33.70;11.40;;;10.90;99.90;;;;;;4990932;28;20053;-68
2021/12/30 08:41:10;;;;;;;33.75;10.38;;;10.80;99.90;;;;;;4974277;28;20565;-72
2021/12/30 08:43:35;;;;;;;39.33;12.82;;;10.90;99.90;;;;;;4990791;28;20650;-68
2021/12/30 08:46:01;;;;;;;34.58;9.82;;;;;;;;;;4990789;28;20042;-69
2021/12/30 08:48:27;;;;;;;39.38;12.25;;;10.90;99.90;;;;;;4990727;28;20048;-69
2021/12/30 08:50:53;;;;;;;29.08;10.10;;;11.00;99.90;;;;;;5000255;28;20703;-70
2021/12/30 08:53:18;;;;;;;36.10;9.88;;;11.10;99.90;;;;;;5016134;28;20402;-69
2021/12/30 08:55:44;;;;;;;25.67;8.93;;;11.00;99.90;;;;;;5007874;28;20286;-67
2021/12/30 08:58:10;;;;;;;32.63;8.30;;;11.00;99.90;;;;;;5008446;28;20112;-68
2021/12/30 09:00:41;;;;;;;32.40;8.52;;;10.80;99.90;;;;;;5010277;28;20052;-72
2021/12/30 09:03:06;;;;;;;35.40;7.32;;;11.20;99.90;;;;;;4992590;28;20041;-70
2021/12/30 09:05:34;;;;;;;35.50;10.85;;;11.10;99.90;;;;;;4990174;28;20562;-68
2021/12/30 09:08:01;;;;;;;28.92;7.10;;;11.10;99.90;;;;;;4999495;28;20064;-70
2021/12/30 09:10:26;;;;;;;23.92;6.85;;;11.10;99.90;;;;;;4992809;28;20041;-69
2021/12/30 09:12:53;;;;;;;28.83;8.98;;;11.10;99.90;;;;;;4997064;28;20045;-69
2021/12/30 09:15:22;;;;;;;32.25;6.75;;;11.30;99.90;;;;;;5000150;28;20417;-65
2021/12/30 09:17:48;;;;;;;24.20;7.03;;;11.40;99.90;;;;;;4998920;28;20049;-70
2021/12/30 09:20:15;;;;;;;23.58;6.20;;;11.20;99.90;;;;;;5005359;28;20069;-70
2021/12/30 09:22:41;;;;;;;28.63;6.93;;;11.40;99.90;;;;;;5013697;28;20048;-68
2021/12/30 09:25:08;;;;;;;29.77;7.55;;;11.10;99.90;;;;;;5030890;28;20112;-70
2021/12/30 09:27:39;;;;;;;24.20;6.75;;;11.40;99.90;;;;;;4993398;28;20030;-68
2021/12/30 09:30:08;;;;;;;35.78;8.48;;;11.30;99.90;;;;;;4992881;28;20125;-71
2021/12/30 09:32:33;;;;;;;22.30;6.80;;;11.30;99.90;;;;;;4998538;28;20117;-68
2021/12/30 09:34:59;;;;;;;28.63;6.95;;;11.40;99.90;;;;;;5001863;28;20121;-71
2021/12/30 09:37:24;;;;;;;29.65;7.20;;;11.30;99.90;;;;;;5013571;28;20095;-66
2021/12/30 09:39:51;;;;;;;41.50;8.02;;;11.60;99.90;;;;;;5013873;28;20091;-68
2021/12/30 09:42:18;;;;;;;37.47;7.45;;;11.50;99.90;;;;;;4996175;28;20588;-69
2021/12/30 09:44:44;;;;;;;25.63;8.02;;;11.30;99.90;;;;;;4996695;28;20033;-68
2021/12/30 09:47:09;;;;;;;36.10;6.80;;;11.40;99.90;;;;;;4997208;28;20081;-71
2021/12/30 09:49:35;;;;;;;31.75;6.40;;;11.50;99.90;;;;;;4996760;28;20046;-68
2021/12/30 09:52:00;;;;;;;25.33;7.20;;;11.50;99.90;;;;;;4997237;28;20100;-68
2021/12/30 09:54:26;;;;;;;32.60;7.32;;;12.00;99.90;;;;;;4997044;28;20038;-68
2021/12/30 09:56:53;;;;;;;32.95;8.43;;;11.60;99.90;;;;;;4997062;28;20484;-68
2021/12/30 09:59:19;;;;;;;33.83;7.68;;;;;;;;;;4996639;28;20052;-68
2021/12/30 10:01:46;;;;;;;39.47;7.78;;;;;;;;;;4980769;28;20405;-68
2021/12/30 10:04:15;;;;;;;36.00;6.32;;;;;;;;;;4997161;28;20064;-69
2021/12/30 10:06:46;;;;;;;26.88;5.93;;;11.60;99.90;;;;;;4996470;28;20196;-68
2021/12/30 10:09:14;;;;;;;28.25;5.70;;;11.70;99.90;;;;;;4996800;28;20133;-68
2021/12/30 10:11:45;;;;;;;28.20;5.65;;;11.60;99.90;;;;;;4996751;28;20077;-68
2021/12/30 10:14:11;;;;;;;32.45;6.88;;;11.50;99.90;;;;;;4996555;28;20413;-68
2021/12/30 10:16:36;;;;;;;30.63;5.32;;;11.70;99.90;;;;;;4996729;28;20042;-68
2021/12/30 10:19:05;;;;;;;39.22;5.82;;;11.60;99.90;;;;;;4995764;28;20076;-67
2021/12/30 10:21:35;;;;;;;33.20;6.70;;;11.50;99.90;;;;;;4996014;28;20421;-68
2021/12/30 10:24:04;;;;;;;26.38;5.90;;;11.60;99.90;;;;;;4980252;28;20050;-67
2021/12/30 10:26:30;;;;;;;28.90;6.32;;;11.60;99.90;;;;;;4996442;28;20042;-71
2021/12/30 10:29:01;;;;;;;29.77;6.13;;;11.60;99.90;;;;;;4996496;28;20113;-67
2021/12/30 10:31:31;;;;;;;37.72;7.05;;;11.60;99.90;;;;;;4996220;28;20544;-67
2021/12/30 10:34:09;;;;;;;34.92;7.25;;;11.60;99.90;;;;;;4996291;28;20045;-68
2021/12/30 10:36:41;;;;;;;37.63;7.40;;;11.70;99.90;;;;;;4996276;28;20045;-69
2021/12/30 10:39:28;;;;;;;42.05;7.57;;;11.80;99.90;;;;;;4995848;28;20095;-66
2021/12/30 10:42:06;;;;;;;44.78;7.50;;;11.90;99.90;;;;;;4988645;28;20049;-67
2021/12/30 10:44:50;;;;;;;41.88;8.80;;;11.60;99.90;;;;;;4999571;28;20034;-67
2021/12/30 10:47:17;;;;;;;37.92;7.50;;;11.70;99.90;;;;;;5001692;28;20126;-67
2021/12/30 10:49:54;;;;;;;48.08;8.45;;;11.60;99.90;;;;;;5021405;28;20034;-68
2021/12/30 10:52:20;;;;;;;42.13;8.50;;;11.70;99.90;;;;;;4998145;28;20485;-67
2021/12/30 10:54:46;;;;;;;42.45;7.90;;;11.80;99.90;;;;;;4995389;28;20056;-68
2021/12/30 10:57:11;;;;;;;41.63;8.25;;;11.70;99.90;;;;;;5001789;28;20038;-70
2021/12/30 10:59:43;;;;;;;50.38;9.93;;;11.80;99.90;;;;;;5005480;28;20041;-67
2021/12/30 11:02:18;;;;;;;52.53;8.45;;;11.80;99.90;;;;;;4989804;28;20088;-67
2021/12/30 11:04:47;;;;;;;54.95;9.48;;;11.80;99.90;;;;;;5003019;28;20524;-70
2021/12/30 11:07:15;;;;;;;57.70;9.82;;;11.80;99.90;;;;;;5004338;28;20116;-68
2021/12/30 11:09:49;;;;;;;55.53;10.27;;;11.90;99.90;;;;;;5004316;28;20050;-68
2021/12/30 11:12:21;;;;;;;58.33;12.13;;;11.70;99.90;;;;;;5004437;28;20038;-67
2021/12/30 11:14:47;;;;;;;56.83;9.88;;;11.70;99.90;;;;;;5002624;28;20046;-67
2021/12/30 11:17:18;;;;;;;51.50;10.48;;;11.60;99.90;;;;;;5005103;28;20555;-67
2021/12/30 11:19:49;;;;;;;60.00;9.95;;;11.40;99.90;;;;;;5005730;28;20080;-68
2021/12/30 11:22:26;;;;;;;58.60;10.05;;;11.90;99.90;;;;;;4999063;28;20034;-68
2021/12/30 11:24:54;;;;;;;54.92;8.73;;;11.50;99.90;;;;;;4995161;28;20037;-67
2021/12/30 11:27:22;;;;;;;46.00;9.18;;;11.70;99.90;;;;;;4996818;28;20038;-67
2021/12/30 11:29:53;;;;;;;56.88;8.45;;;12.00;99.90;;;;;;4995281;28;20049;-67
2021/12/30 11:32:22;;;;;;;58.33;9.63;;;11.90;99.90;;;;;;5013644;28;20054;-67
2021/12/30 11:34:48;;;;;;;45.58;9.02;;;11.80;99.90;;;;;;5060262;23;20048;-78
2021/12/30 11:37:16;;;;;;;39.88;8.50;;;12.00;99.90;;;;;;5064871;28;20036;-78
2021/12/30 11:39:44;;;;;;;49.03;10.50;;;11.70;99.90;;;;;;5077438;28;20048;-80
2021/12/30 11:42:20;;;;;;;53.38;9.35;;;11.90;99.90;;;;;;5064334;28;20400;-79
2021/12/30 11:44:49;;;;;;;45.42;8.75;;;11.90;99.90;;;;;;5037296;28;20524;-78
2021/12/30 11:47:36;;;;;;;35.70;8.55;;;11.90;99.90;;;;;;5042105;28;20065;-79
2021/12/30 11:50:27;;;;;;;50.28;9.07;;;11.90;99.90;;;;;;5041568;28;20044;-80
2021/12/30 11:53:12;;;;;;;44.28;7.85;;;12.00;99.90;;;;;;5025132;28;20038;-77
2021/12/30 11:55:50;;;;;;;55.08;8.85;;;12.00;99.90;;;;;;5042208;28;20447;-78
2021/12/30 11:58:46;;;;;;;44.08;9.02;;;12.00;99.90;;;;;;5024550;28;20128;-78
2021/12/30 12:01:11;;;;;;;42.75;9.43;;;12.00;99.90;;;;;;5023830;28;20041;-79
2021/12/30 12:03:40;;;;;;;47.50;8.55;;;11.80;99.90;;;;;;5026785;28;20056;-78
2021/12/30 12:06:26;;;;;;;41.97;6.95;;;12.00;99.90;;;;;;5031541;28;20094;-78
2021/12/30 12:09:09;;;;;;;37.30;8.05;;;11.80;99.90;;;;;;5030230;28;20064;-77
2021/12/30 12:11:41;;;;;;;45.15;7.30;;;12.10;99.90;;;;;;5056104;28;20045;-79
2021/12/30 12:14:21;;;;;;;35.92;7.07;;;12.00;99.90;;;;;;5056277;28;20098;-79
2021/12/30 12:16:54;;;;;;;38.17;7.43;;;12.00;99.90;;;;;;5055352;28;20041;-80
2021/12/30 12:19:41;;;;;;;42.38;7.40;;;12.00;99.90;;;;;;5036592;28;20541;-79
2021/12/30 12:22:25;;;;;;;48.85;8.05;;;12.00;99.90;;;;;;5066412;28;20073;-78
2021/12/30 12:25:08;;;;;;;35.58;8.75;;;12.00;99.90;;;;;;5056582;28;20495;-81
2021/12/30 12:27:38;;;;;;;32.88;6.85;;;12.00;99.90;;;;;;5057736;28;20041;-76
2021/12/30 12:30:06;;;;;;;43.50;6.80;;;12.10;99.90;;;;;;5057013;28;20052;-80
2021/12/30 12:32:34;;;;;;;39.17;8.00;;;12.00;99.90;;;;;;5058385;28;20113;-80
2021/12/30 12:35:13;;;;;;;46.38;8.93;;;12.00;99.90;;;;;;5041707;28;20032;-79
2021/12/30 12:37:44;;;;;;;43.95;9.40;;;12.00;99.90;;;;;;5057280;28;20044;-77
2021/12/30 12:40:16;;;;;;;37.22;8.00;;;12.10;99.90;;;;;;5041835;28;20045;-79
2021/12/30 12:42:51;;;;;;;38.28;7.35;;;12.00;99.90;;;;;;5057941;28;20037;-80
2021/12/30 12:45:16;;;;;;;38.47;8.93;;;11.90;99.90;;;;;;5029101;28;20033;-81
2021/12/30 12:47:42;;;;;;;55.15;9.48;;;12.10;99.90;;;;;;5053218;28;20539;-80
2021/12/30 12:50:08;;;;;;;44.33;7.40;;;12.10;99.90;;;;;;5051678;28;20028;-78
2021/12/30 12:52:46;;;;;;;32.00;6.78;;;12.20;99.90;;;;;;5045225;28;20032;-78
2021/12/30 12:55:15;;;;;;;40.40;7.20;;;12.00;99.90;;;;;;5051694;28;20033;-80
2021/12/30 12:57:41;;;;;;;46.83;7.18;;;12.00;99.90;;;;;;5059940;28;20052;-81
2021/12/30 13:00:09;;;;;;;36.67;7.10;;;11.90;99.90;;;;;;5061935;28;20079;-79